• Join FlightAware (Why Join?)
  • Login
  • US Flag 
12:06AM EDT


 

Airport Tracker/Info


-or-


 

Live Flight TrackerFlight Track Log ✈ SWA525 ✈ 29-Apr-2013 ✈ KLIT - KDAL

Flight Track Log - Related Links

Times and Time Zones

All times are in EDT time to prevent confusion due to time zone crossing. See the SWA525 flight status page for this flight to view local times or setup timezone preferences in your user account.

Time Position Orientation Groundspeed Altitude Reporting Facility
EDT Latitude Longitude Course Direction KTS MPH feet Rate Location/Type
02:32PM 34.7114 -92.2544 259° West 164 189 1,200  Level Memphis Center
02:33PM 34.7067 -92.2847 259° West 186 214 1,800 1,740 Climbing Memphis Center
02:34PM 34.6994 -92.3553 263° West 232 267 3,900 2,700 Climbing Memphis Center
02:35PM 34.6886 -92.4964 265° West 281 323 8,700 2,820 Climbing Memphis Center
02:36PM 34.6744 -92.5894 260° West 295 339 11,100 2,700 Climbing Memphis Center
02:37PM 34.6639 -92.7106 264° West 320 368 14,100 2,820 Climbing Memphis Center
02:38PM 34.6514 -92.8236 262° West 342 394 16,800 2,700 Climbing Memphis Center
02:39PM 34.6383 -92.9469 263° West 359 413 19,600 2,460 Climbing Memphis Center
02:40PM 34.6086 -93.0697 254° West 370 426 21,800 2,040 Climbing Memphis Center
02:41PM 34.5600 -93.1917 244° Southwest 380 437 23,700 1,860 Climbing Memphis Center
02:42PM 34.5092 -93.3136 243° Southwest 397 457 25,600 1,740 Climbing Memphis Center
02:43PM 34.4581 -93.4403 244° Southwest 409 471 27,200 1,740 Climbing Memphis Center
02:45PM 34.3603 -93.6953 245° Southwest 415 478 30,900 1,920 Climbing Fort Worth Center
02:46PM 34.3078 -93.8233 244° Southwest 415 478 32,900 1,500 Climbing Fort Worth Center
02:47PM 34.2569 -93.9511 244° Southwest 415 478 34,000 540 Climbing Fort Worth Center
02:48PM 34.2042 -94.0786 243° Southwest 415 478 34,000  Level Fort Worth Center
02:49PM 34.1511 -94.2061 243° Southwest 420 483 34,000 -540 Level Fort Worth Center
02:50PM 34.0747 -94.3144 230° Southwest 425 489 33,000 -1,020 Descending Fort Worth Center
02:51PM 33.9958 -94.4247 229° Southwest 431 496 32,000 -1,020 Descending Fort Worth Center
02:52PM 33.9169 -94.5278 227° Southwest 426 490 31,000 -1,020 Descending Fort Worth Center
02:53PM 33.8486 -94.6425 234° Southwest 426 490 30,000 -960 Descending Fort Worth Center
02:54PM 33.8075 -94.7711 249° West 419 482 29,100 -960 Descending Fort Worth Center
02:55PM 33.7622 -94.9025 248° West 419 482 28,100 -960 Descending Fort Worth Center
02:56PM 33.7189 -95.0286 248° West 424 488 27,200 -960 Descending Fort Worth Center
02:57PM 33.6731 -95.1597 247° West 424 488 26,200 -960 Descending Fort Worth Center
02:58PM 33.6275 -95.2931 248° West 424 488 25,300 -960 Descending Fort Worth Center
02:59PM 33.5817 -95.4189 246° West 424 488 24,300 -1,080 Descending Fort Worth Center
03:00PM 33.5397 -95.5469 249° West 424 488 23,200 -1,680 Descending Fort Worth Center
03:01PM 33.4975 -95.6647 247° West 404 465 21,000 -2,100 Descending Fort Worth Center
03:02PM 33.4636 -95.7700 249° West 382 440 19,000 -2,220 Descending Fort Worth Center
03:03PM 33.4211 -95.8903 247° West 365 420 16,600 -2,160 Descending Fort Worth Center
03:04PM 33.3869 -95.9853 247° West 351 404 14,800 -2,040 Descending Fort Worth Center
03:05PM 33.3483 -96.0981 248° West 346 398 12,600 -1,980 Descending Fort Worth Center
03:06PM 33.3119 -96.1981 246° West 334 384 10,900 -1,500 Descending Fort Worth Center
03:07PM 33.2792 -96.2928 248° West 319 367 9,600 -1,020 Descending Fort Worth Center
03:08PM 33.2403 -96.3728 240° Southwest 295 339 8,900 -300 Descending Fort Worth Center
03:09PM 33.1928 -96.4428 231° Southwest 277 319 9,000 -180 Climbing Fort Worth Center
03:10PM 33.1517 -96.5178 237° Southwest 277 319 8,600 -900 Descending Fort Worth Center
03:11PM 33.1189 -96.5975 244° Southwest 270 311 7,300 -1,440 Descending Fort Worth Center
03:12PM 33.0733 -96.6622 230° Southwest 264 304 5,800 -1,440 Descending Fort Worth Center
03:13PM 33.0333 -96.7000 218° Southwest 249 287 4,900 -1,320 Descending Dallas / Fort Worth TRACON
03:14PM 33.0000 -96.7667 239° Southwest 248 285 3,600 -960 Descending Dallas / Fort Worth TRACON
03:15PM 32.9667 -96.8333 239° Southwest 214 246 3,000 -660 Descending Dallas / Fort Worth TRACON
03:16PM 32.9333 -96.8833 232° Southwest 188 216 2,300 -780 Descending Dallas / Fort Worth TRACON
03:17PM 32.9000 -96.9000 203° Southwest 125 144 1,500 -780 Descending Dallas / Fort Worth TRACON
03:18PM 32.8667 -96.8667 140° Southeast 133 153 800 -720 Descending Dallas / Fort Worth TRACON